Terminal Aerodrome Forecast
Issued by NWS Norman, OK

Home | Current Version | Previous Version | Text Only | Print | Product List | Glossary On
Versions: 1 2 3 4 5 6 7 8 9 10 11 12 13 14 15 16 17 18 19 20 21 22
000
FTUS44 KOUN 251726
TAFSPS
TAF
KSPS 251726Z 2518/2618 17015G22KT 5SM -TSRA SCT025 OVC070CB
      TEMPO 2518/2521 VRB50KT 1SM +TSRA SCT008 OVC012CB
     FM252300 16009KT P6SM FEW007 BKN080
     FM260900 17008KT 4SM BR BKN015
     FM261500 18010KT P6SM BKN030=

USA.gov is the U.S. government's official web portal to all federal, state and local government web resources and services.